sensor_id;sensor_type;location;lat;lon;timestamp;P1;durP1;ratioP1;P2;durP2;ratioP2
36449;SDS011;22475;51.390;7.180;2023-05-10T00:00:30;0.60;;;0.28;;
36449;SDS011;22475;51.390;7.180;2023-05-10T00:02:57;0.40;;;0.40;;
36449;SDS011;22475;51.390;7.180;2023-05-10T00:05:24;0.30;;;0.30;;
36449;SDS011;22475;51.390;7.180;2023-05-10T00:07:51;0.45;;;0.45;;
36449;SDS011;22475;51.390;7.180;2023-05-10T00:10:17;0.60;;;0.50;;
36449;SDS011;22475;51.390;7.180;2023-05-10T00:12:44;1.75;;;0.40;;
36449;SDS011;22475;51.390;7.180;2023-05-10T00:15:11;0.38;;;0.38;;
36449;SDS011;22475;51.390;7.180;2023-05-10T00:17:39;0.90;;;0.88;;
36449;SDS011;22475;51.390;7.180;2023-05-10T00:20:06;0.38;;;0.38;;
36449;SDS011;22475;51.390;7.180;2023-05-10T00:22:33;0.52;;;0.52;;
36449;SDS011;22475;51.390;7.180;2023-05-10T00:25:03;0.50;;;0.50;;
36449;SDS011;22475;51.390;7.180;2023-05-10T00:27:31;0.70;;;0.70;;
36449;SDS011;22475;51.390;7.180;2023-05-10T00:29:58;3.17;;;0.80;;
36449;SDS011;22475;51.390;7.180;2023-05-10T00:32:24;0.63;;;0.40;;
36449;SDS011;22475;51.390;7.180;2023-05-10T00:34:53;1.20;;;0.95;;
36449;SDS011;22475;51.390;7.180;2023-05-10T00:37:19;0.95;;;0.95;;
36449;SDS011;22475;51.390;7.180;2023-05-10T00:39:46;3.00;;;1.10;;
36449;SDS011;22475;51.390;7.180;2023-05-10T00:42:13;1.27;;;1.17;;
36449;SDS011;22475;51.390;7.180;2023-05-10T00:44:40;0.88;;;0.88;;
36449;SDS011;22475;51.390;7.180;2023-05-10T00:47:06;1.30;;;1.20;;
36449;SDS011;22475;51.390;7.180;2023-05-10T00:49:34;1.17;;;1.10;;
36449;SDS011;22475;51.390;7.180;2023-05-10T00:52:03;1.20;;;1.10;;
36449;SDS011;22475;51.390;7.180;2023-05-10T00:54:29;0.85;;;0.80;;
36449;SDS011;22475;51.390;7.180;2023-05-10T00:56:56;1.45;;;0.98;;
36449;SDS011;22475;51.390;7.180;2023-05-10T00:59:23;0.50;;;0.50;;
36449;SDS011;22475;51.390;7.180;2023-05-10T01:01:50;1.00;;;1.00;;
36449;SDS011;22475;51.390;7.180;2023-05-10T01:04:18;1.55;;;1.45;;
36449;SDS011;22475;51.390;7.180;2023-05-10T01:06:50;1.55;;;1.10;;
36449;SDS011;22475;51.390;7.180;2023-05-10T01:09:19;0.95;;;0.95;;
36449;SDS011;22475;51.390;7.180;2023-05-10T01:11:46;1.10;;;1.00;;
36449;SDS011;22475;51.390;7.180;2023-05-10T01:14:13;1.25;;;0.80;;
36449;SDS011;22475;51.390;7.180;2023-05-10T01:16:43;1.45;;;1.35;;
36449;SDS011;22475;51.390;7.180;2023-05-10T01:19:16;1.00;;;1.00;;
36449;SDS011;22475;51.390;7.180;2023-05-10T01:21:48;1.23;;;1.17;;
36449;SDS011;22475;51.390;7.180;2023-05-10T01:27:50;0.90;;;0.90;;
36449;SDS011;22475;51.390;7.180;2023-05-10T01:30:38;1.13;;;1.10;;
36449;SDS011;22475;51.390;7.180;2023-05-10T01:33:30;2.15;;;1.50;;
36449;SDS011;22475;51.390;7.180;2023-05-10T01:36:06;1.65;;;1.55;;
36449;SDS011;22475;51.390;7.180;2023-05-10T01:38:41;3.95;;;2.70;;
36449;SDS011;22475;51.390;7.180;2023-05-10T01:41:13;1.95;;;1.83;;
36449;SDS011;22475;51.390;7.180;2023-05-10T01:43:46;1.50;;;1.40;;
36449;SDS011;22475;51.390;7.180;2023-05-10T01:46:20;2.10;;;2.00;;
36449;SDS011;22475;51.390;7.180;2023-05-10T01:48:55;2.97;;;2.67;;
36449;SDS011;22475;51.390;7.180;2023-05-10T01:51:25;3.20;;;2.88;;
36449;SDS011;22475;51.390;7.180;2023-05-10T01:53:58;2.75;;;2.53;;
36449;SDS011;22475;51.390;7.180;2023-05-10T01:56:30;2.28;;;1.95;;
36449;SDS011;22475;51.390;7.180;2023-05-10T01:58:59;3.20;;;2.35;;
36449;SDS011;22475;51.390;7.180;2023-05-10T02:01:26;4.10;;;3.60;;
36449;SDS011;22475;51.390;7.180;2023-05-10T02:03:55;3.47;;;2.75;;
36449;SDS011;22475;51.390;7.180;2023-05-10T02:06:23;2.60;;;2.40;;
36449;SDS011;22475;51.390;7.180;2023-05-10T02:08:51;5.85;;;4.40;;
36449;SDS011;22475;51.390;7.180;2023-05-10T02:11:19;2.70;;;2.50;;
36449;SDS011;22475;51.390;7.180;2023-05-10T02:13:47;3.83;;;3.53;;
36449;SDS011;22475;51.390;7.180;2023-05-10T02:16:16;8.50;;;3.17;;
36449;SDS011;22475;51.390;7.180;2023-05-10T02:18:44;3.17;;;2.88;;
36449;SDS011;22475;51.390;7.180;2023-05-10T02:21:13;3.05;;;2.85;;
36449;SDS011;22475;51.390;7.180;2023-05-10T02:23:43;4.15;;;3.45;;
36449;SDS011;22475;51.390;7.180;2023-05-10T02:26:11;3.25;;;2.95;;
36449;SDS011;22475;51.390;7.180;2023-05-10T02:28:38;9.75;;;4.32;;
36449;SDS011;22475;51.390;7.180;2023-05-10T02:31:08;5.75;;;4.70;;
36449;SDS011;22475;51.390;7.180;2023-05-10T02:33:36;6.15;;;4.20;;
36449;SDS011;22475;51.390;7.180;2023-05-10T02:36:05;2.65;;;2.38;;
36449;SDS011;22475;51.390;7.180;2023-05-10T02:38:35;2.63;;;2.42;;
36449;SDS011;22475;51.390;7.180;2023-05-10T02:41:02;6.15;;;4.47;;
36449;SDS011;22475;51.390;7.180;2023-05-10T02:43:31;3.28;;;2.78;;
36449;SDS011;22475;51.390;7.180;2023-05-10T02:45:59;3.80;;;3.50;;
36449;SDS011;22475;51.390;7.180;2023-05-10T02:48:26;4.38;;;3.13;;
36449;SDS011;22475;51.390;7.180;2023-05-10T02:50:53;3.53;;;2.40;;
36449;SDS011;22475;51.390;7.180;2023-05-10T02:53:22;3.05;;;2.78;;
36449;SDS011;22475;51.390;7.180;2023-05-10T02:55:58;6.28;;;3.75;;
36449;SDS011;22475;51.390;7.180;2023-05-10T02:58:28;4.65;;;2.90;;
36449;SDS011;22475;51.390;7.180;2023-05-10T03:00:55;4.38;;;3.67;;
36449;SDS011;22475;51.390;7.180;2023-05-10T03:03:22;2.60;;;2.40;;
36449;SDS011;22475;51.390;7.180;2023-05-10T03:05:49;4.43;;;3.40;;
36449;SDS011;22475;51.390;7.180;2023-05-10T03:08:18;5.25;;;4.18;;
36449;SDS011;22475;51.390;7.180;2023-05-10T03:10:47;2.75;;;2.55;;
36449;SDS011;22475;51.390;7.180;2023-05-10T03:13:24;4.50;;;4.07;;
36449;SDS011;22475;51.390;7.180;2023-05-10T03:16:02;7.18;;;4.32;;
36449;SDS011;22475;51.390;7.180;2023-05-10T03:18:37;7.78;;;3.88;;
36449;SDS011;22475;51.390;7.180;2023-05-10T03:21:11;5.43;;;3.42;;
36449;SDS011;22475;51.390;7.180;2023-05-10T03:23:40;3.22;;;2.97;;
36449;SDS011;22475;51.390;7.180;2023-05-10T03:26:09;5.70;;;2.78;;
36449;SDS011;22475;51.390;7.180;2023-05-10T03:28:43;6.03;;;5.43;;
36449;SDS011;22475;51.390;7.180;2023-05-10T03:31:11;7.95;;;5.20;;
36449;SDS011;22475;51.390;7.180;2023-05-10T03:33:45;4.35;;;3.97;;
36449;SDS011;22475;51.390;7.180;2023-05-10T03:36:12;7.95;;;4.95;;
36449;SDS011;22475;51.390;7.180;2023-05-10T03:38:39;6.68;;;5.00;;
36449;SDS011;22475;51.390;7.180;2023-05-10T03:41:08;5.47;;;4.68;;
36449;SDS011;22475;51.390;7.180;2023-05-10T03:43:35;8.98;;;5.68;;
36449;SDS011;22475;51.390;7.180;2023-05-10T03:46:03;4.50;;;4.05;;
36449;SDS011;22475;51.390;7.180;2023-05-10T03:48:30;5.60;;;3.50;;
36449;SDS011;22475;51.390;7.180;2023-05-10T03:50:58;4.75;;;3.58;;
36449;SDS011;22475;51.390;7.180;2023-05-10T03:53:25;10.27;;;6.05;;
36449;SDS011;22475;51.390;7.180;2023-05-10T03:55:52;8.32;;;6.70;;
36449;SDS011;22475;51.390;7.180;2023-05-10T03:58:19;9.00;;;5.85;;
36449;SDS011;22475;51.390;7.180;2023-05-10T04:00:46;6.22;;;4.97;;
36449;SDS011;22475;51.390;7.180;2023-05-10T04:03:15;8.07;;;5.72;;
36449;SDS011;22475;51.390;7.180;2023-05-10T04:05:42;8.45;;;6.25;;
36449;SDS011;22475;51.390;7.180;2023-05-10T04:08:08;7.18;;;6.43;;
36449;SDS011;22475;51.390;7.180;2023-05-10T04:10:35;8.18;;;6.05;;
36449;SDS011;22475;51.390;7.180;2023-05-10T04:13:02;7.30;;;5.18;;
36449;SDS011;22475;51.390;7.180;2023-05-10T04:15:29;5.95;;;5.05;;
36449;SDS011;22475;51.390;7.180;2023-05-10T04:17:55;7.70;;;6.20;;
36449;SDS011;22475;51.390;7.180;2023-05-10T04:20:23;8.40;;;6.30;;
36449;SDS011;22475;51.390;7.180;2023-05-10T04:22:50;5.57;;;4.97;;
36449;SDS011;22475;51.390;7.180;2023-05-10T04:25:17;7.38;;;5.72;;
36449;SDS011;22475;51.390;7.180;2023-05-10T04:27:44;5.38;;;4.57;;
36449;SDS011;22475;51.390;7.180;2023-05-10T04:30:11;12.80;;;4.88;;
36449;SDS011;22475;51.390;7.180;2023-05-10T04:32:38;5.80;;;4.47;;
36449;SDS011;22475;51.390;7.180;2023-05-10T04:35:05;4.43;;;3.97;;
36449;SDS011;22475;51.390;7.180;2023-05-10T04:37:33;6.93;;;5.75;;
36449;SDS011;22475;51.390;7.180;2023-05-10T04:40:00;8.10;;;6.28;;
36449;SDS011;22475;51.390;7.180;2023-05-10T04:42:28;12.68;;;8.18;;
36449;SDS011;22475;51.390;7.180;2023-05-10T04:44:55;14.75;;;7.10;;
36449;SDS011;22475;51.390;7.180;2023-05-10T04:47:21;7.57;;;5.40;;
36449;SDS011;22475;51.390;7.180;2023-05-10T04:49:48;6.88;;;5.25;;
36449;SDS011;22475;51.390;7.180;2023-05-10T04:52:15;8.70;;;5.03;;
36449;SDS011;22475;51.390;7.180;2023-05-10T04:54:44;6.13;;;4.78;;
36449;SDS011;22475;51.390;7.180;2023-05-10T04:57:10;7.47;;;5.15;;
36449;SDS011;22475;51.390;7.180;2023-05-10T04:59:37;5.68;;;4.95;;
36449;SDS011;22475;51.390;7.180;2023-05-10T05:02:04;7.20;;;4.78;;
36449;SDS011;22475;51.390;7.180;2023-05-10T05:04:31;7.65;;;5.32;;
36449;SDS011;22475;51.390;7.180;2023-05-10T05:06:58;6.95;;;5.57;;
36449;SDS011;22475;51.390;7.180;2023-05-10T05:09:25;7.65;;;6.25;;
36449;SDS011;22475;51.390;7.180;2023-05-10T05:11:53;10.10;;;5.75;;
36449;SDS011;22475;51.390;7.180;2023-05-10T05:14:20;9.88;;;7.00;;
36449;SDS011;22475;51.390;7.180;2023-05-10T05:16:46;14.60;;;9.18;;
36449;SDS011;22475;51.390;7.180;2023-05-10T05:19:13;10.07;;;6.85;;
36449;SDS011;22475;51.390;7.180;2023-05-10T05:21:40;8.50;;;5.60;;
36449;SDS011;22475;51.390;7.180;2023-05-10T05:24:07;9.98;;;6.65;;
36449;SDS011;22475;51.390;7.180;2023-05-10T05:26:35;15.20;;;8.77;;
36449;SDS011;22475;51.390;7.180;2023-05-10T05:29:03;12.82;;;7.45;;
36449;SDS011;22475;51.390;7.180;2023-05-10T05:31:30;8.52;;;7.00;;
36449;SDS011;22475;51.390;7.180;2023-05-10T05:33:56;20.10;;;9.00;;
36449;SDS011;22475;51.390;7.180;2023-05-10T05:36:23;12.60;;;7.90;;
36449;SDS011;22475;51.390;7.180;2023-05-10T05:38:50;11.00;;;8.70;;
36449;SDS011;22475;51.390;7.180;2023-05-10T05:41:17;9.55;;;7.60;;
36449;SDS011;22475;51.390;7.180;2023-05-10T05:43:43;12.95;;;8.95;;
36449;SDS011;22475;51.390;7.180;2023-05-10T05:46:11;11.48;;;8.55;;
36449;SDS011;22475;51.390;7.180;2023-05-10T05:48:38;14.63;;;9.55;;
36449;SDS011;22475;51.390;7.180;2023-05-10T05:51:05;12.55;;;7.57;;
36449;SDS011;22475;51.390;7.180;2023-05-10T05:53:32;16.48;;;8.27;;
36449;SDS011;22475;51.390;7.180;2023-05-10T05:55:58;13.02;;;8.35;;
36449;SDS011;22475;51.390;7.180;2023-05-10T05:58:25;15.90;;;8.40;;
36449;SDS011;22475;51.390;7.180;2023-05-10T06:00:52;15.00;;;9.02;;
36449;SDS011;22475;51.390;7.180;2023-05-10T06:03:21;14.52;;;9.18;;
36449;SDS011;22475;51.390;7.180;2023-05-10T06:05:47;15.23;;;9.10;;
36449;SDS011;22475;51.390;7.180;2023-05-10T06:08:14;16.08;;;9.23;;
36449;SDS011;22475;51.390;7.180;2023-05-10T06:10:41;13.93;;;9.57;;
36449;SDS011;22475;51.390;7.180;2023-05-10T06:13:08;18.02;;;9.50;;
36449;SDS011;22475;51.390;7.180;2023-05-10T06:15:34;15.07;;;8.65;;
36449;SDS011;22475;51.390;7.180;2023-05-10T06:18:01;19.33;;;10.45;;
36449;SDS011;22475;51.390;7.180;2023-05-10T06:20:29;18.63;;;10.77;;
36449;SDS011;22475;51.390;7.180;2023-05-10T06:22:57;13.75;;;9.63;;
36449;SDS011;22475;51.390;7.180;2023-05-10T06:25:24;11.25;;;8.68;;
36449;SDS011;22475;51.390;7.180;2023-05-10T06:27:50;17.75;;;10.40;;
36449;SDS011;22475;51.390;7.180;2023-05-10T06:30:21;12.63;;;8.02;;
36449;SDS011;22475;51.390;7.180;2023-05-10T06:32:52;10.82;;;7.88;;
36449;SDS011;22475;51.390;7.180;2023-05-10T06:35:19;11.43;;;8.07;;
36449;SDS011;22475;51.390;7.180;2023-05-10T06:37:47;15.05;;;8.77;;
36449;SDS011;22475;51.390;7.180;2023-05-10T06:40:14;17.52;;;9.90;;
36449;SDS011;22475;51.390;7.180;2023-05-10T06:42:41;16.35;;;9.23;;
36449;SDS011;22475;51.390;7.180;2023-05-10T06:45:10;17.88;;;9.52;;
36449;SDS011;22475;51.390;7.180;2023-05-10T06:47:37;19.35;;;10.25;;
36449;SDS011;22475;51.390;7.180;2023-05-10T06:50:04;23.67;;;9.75;;
36449;SDS011;22475;51.390;7.180;2023-05-10T06:52:32;16.65;;;9.23;;
36449;SDS011;22475;51.390;7.180;2023-05-10T06:55:00;14.25;;;9.20;;
36449;SDS011;22475;51.390;7.180;2023-05-10T06:57:27;10.68;;;7.68;;
36449;SDS011;22475;51.390;7.180;2023-05-10T06:59:54;19.08;;;9.73;;
36449;SDS011;22475;51.390;7.180;2023-05-10T07:02:21;14.70;;;9.43;;
36449;SDS011;22475;51.390;7.180;2023-05-10T07:04:48;20.67;;;11.93;;
36449;SDS011;22475;51.390;7.180;2023-05-10T07:07:16;15.35;;;10.02;;
36449;SDS011;22475;51.390;7.180;2023-05-10T07:09:43;15.93;;;9.65;;
36449;SDS011;22475;51.390;7.180;2023-05-10T07:12:11;15.13;;;9.80;;
36449;SDS011;22475;51.390;7.180;2023-05-10T07:14:38;12.82;;;7.93;;
36449;SDS011;22475;51.390;7.180;2023-05-10T07:17:05;19.38;;;10.63;;
36449;SDS011;22475;51.390;7.180;2023-05-10T07:19:31;20.58;;;11.27;;
36449;SDS011;22475;51.390;7.180;2023-05-10T07:21:58;21.27;;;11.38;;
36449;SDS011;22475;51.390;7.180;2023-05-10T07:24:25;13.57;;;8.60;;
36449;SDS011;22475;51.390;7.180;2023-05-10T07:26:51;24.42;;;12.68;;
36449;SDS011;22475;51.390;7.180;2023-05-10T07:29:20;17.15;;;9.82;;
36449;SDS011;22475;51.390;7.180;2023-05-10T07:31:46;12.55;;;8.85;;
36449;SDS011;22475;51.390;7.180;2023-05-10T07:34:13;22.60;;;10.80;;
36449;SDS011;22475;51.390;7.180;2023-05-10T07:36:40;16.42;;;10.25;;
36449;SDS011;22475;51.390;7.180;2023-05-10T07:39:06;14.23;;;8.70;;
36449;SDS011;22475;51.390;7.180;2023-05-10T07:41:33;14.45;;;9.57;;
36449;SDS011;22475;51.390;7.180;2023-05-10T07:44:02;17.55;;;8.82;;
36449;SDS011;22475;51.390;7.180;2023-05-10T07:46:31;14.35;;;9.50;;
36449;SDS011;22475;51.390;7.180;2023-05-10T07:48:57;18.60;;;9.55;;
36449;SDS011;22475;51.390;7.180;2023-05-10T07:51:24;16.80;;;10.32;;
36449;SDS011;22475;51.390;7.180;2023-05-10T07:53:51;16.63;;;8.60;;
36449;SDS011;22475;51.390;7.180;2023-05-10T07:56:21;14.85;;;9.00;;
36449;SDS011;22475;51.390;7.180;2023-05-10T07:58:50;16.58;;;9.48;;
36449;SDS011;22475;51.390;7.180;2023-05-10T08:01:16;14.55;;;9.57;;
36449;SDS011;22475;51.390;7.180;2023-05-10T08:03:45;14.85;;;7.75;;
36449;SDS011;22475;51.390;7.180;2023-05-10T08:06:12;17.88;;;9.35;;
36449;SDS011;22475;51.390;7.180;2023-05-10T08:08:39;19.45;;;10.52;;
36449;SDS011;22475;51.390;7.180;2023-05-10T08:11:05;19.00;;;10.05;;
36449;SDS011;22475;51.390;7.180;2023-05-10T08:13:32;12.38;;;7.55;;
36449;SDS011;22475;51.390;7.180;2023-05-10T08:15:59;15.30;;;9.10;;
36449;SDS011;22475;51.390;7.180;2023-05-10T08:18:26;12.55;;;8.25;;
36449;SDS011;22475;51.390;7.180;2023-05-10T08:20:54;15.10;;;8.30;;
36449;SDS011;22475;51.390;7.180;2023-05-10T08:23:21;18.85;;;8.88;;
36449;SDS011;22475;51.390;7.180;2023-05-10T08:25:47;16.92;;;8.25;;
36449;SDS011;22475;51.390;7.180;2023-05-10T08:28:14;23.55;;;9.50;;
36449;SDS011;22475;51.390;7.180;2023-05-10T08:30:41;15.60;;;9.07;;
36449;SDS011;22475;51.390;7.180;2023-05-10T08:33:08;17.40;;;9.32;;
36449;SDS011;22475;51.390;7.180;2023-05-10T08:35:34;16.63;;;8.75;;
36449;SDS011;22475;51.390;7.180;2023-05-10T08:38:03;17.67;;;8.55;;
36449;SDS011;22475;51.390;7.180;2023-05-10T08:40:29;13.85;;;9.15;;
36449;SDS011;22475;51.390;7.180;2023-05-10T08:42:58;11.25;;;7.60;;
36449;SDS011;22475;51.390;7.180;2023-05-10T08:45:31;13.77;;;8.73;;
36449;SDS011;22475;51.390;7.180;2023-05-10T08:47:59;21.05;;;9.32;;
36449;SDS011;22475;51.390;7.180;2023-05-10T08:50:27;15.02;;;7.80;;
36449;SDS011;22475;51.390;7.180;2023-05-10T08:52:55;12.10;;;7.25;;
36449;SDS011;22475;51.390;7.180;2023-05-10T08:55:27;13.70;;;7.85;;
36449;SDS011;22475;51.390;7.180;2023-05-10T08:57:54;13.82;;;7.30;;
36449;SDS011;22475;51.390;7.180;2023-05-10T09:00:21;12.50;;;7.78;;
36449;SDS011;22475;51.390;7.180;2023-05-10T09:02:49;9.15;;;6.18;;
36449;SDS011;22475;51.390;7.180;2023-05-10T09:05:16;10.23;;;6.70;;
36449;SDS011;22475;51.390;7.180;2023-05-10T09:07:43;12.23;;;7.32;;
36449;SDS011;22475;51.390;7.180;2023-05-10T09:10:10;11.43;;;7.35;;
36449;SDS011;22475;51.390;7.180;2023-05-10T09:12:40;10.20;;;6.57;;
36449;SDS011;22475;51.390;7.180;2023-05-10T09:15:09;11.87;;;7.27;;
36449;SDS011;22475;51.390;7.180;2023-05-10T09:17:36;9.88;;;6.43;;
36449;SDS011;22475;51.390;7.180;2023-05-10T09:20:05;8.18;;;6.32;;
36449;SDS011;22475;51.390;7.180;2023-05-10T09:22:32;12.70;;;6.20;;
36449;SDS011;22475;51.390;7.180;2023-05-10T09:25:03;9.35;;;6.45;;
36449;SDS011;22475;51.390;7.180;2023-05-10T09:27:31;11.60;;;7.15;;
36449;SDS011;22475;51.390;7.180;2023-05-10T09:29:59;10.18;;;6.20;;
36449;SDS011;22475;51.390;7.180;2023-05-10T09:32:35;8.30;;;6.10;;
36449;SDS011;22475;51.390;7.180;2023-05-10T09:35:09;13.23;;;6.10;;
36449;SDS011;22475;51.390;7.180;2023-05-10T09:37:36;9.77;;;5.78;;
36449;SDS011;22475;51.390;7.180;2023-05-10T09:40:06;8.27;;;5.30;;
36449;SDS011;22475;51.390;7.180;2023-05-10T09:42:34;8.57;;;6.18;;
36449;SDS011;22475;51.390;7.180;2023-05-10T09:45:06;7.13;;;4.60;;
36449;SDS011;22475;51.390;7.180;2023-05-10T09:47:33;7.65;;;5.38;;
36449;SDS011;22475;51.390;7.180;2023-05-10T09:50:01;7.38;;;4.32;;
36449;SDS011;22475;51.390;7.180;2023-05-10T09:52:29;6.70;;;5.55;;
36449;SDS011;22475;51.390;7.180;2023-05-10T09:54:57;5.43;;;4.47;;
36449;SDS011;22475;51.390;7.180;2023-05-10T09:57:29;7.15;;;4.43;;
36449;SDS011;22475;51.390;7.180;2023-05-10T09:59:56;8.88;;;5.75;;
36449;SDS011;22475;51.390;7.180;2023-05-10T10:02:29;7.30;;;5.10;;
36449;SDS011;22475;51.390;7.180;2023-05-10T10:04:56;7.85;;;5.13;;
36449;SDS011;22475;51.390;7.180;2023-05-10T10:07:23;8.60;;;5.28;;
36449;SDS011;22475;51.390;7.180;2023-05-10T10:09:51;10.95;;;6.82;;
36449;SDS011;22475;51.390;7.180;2023-05-10T10:12:19;7.05;;;4.80;;
36449;SDS011;22475;51.390;7.180;2023-05-10T10:14:46;7.80;;;5.82;;
36449;SDS011;22475;51.390;7.180;2023-05-10T10:17:14;7.03;;;5.13;;
36449;SDS011;22475;51.390;7.180;2023-05-10T10:19:42;9.93;;;6.07;;
36449;SDS011;22475;51.390;7.180;2023-05-10T10:22:11;10.87;;;6.43;;
36449;SDS011;22475;51.390;7.180;2023-05-10T10:24:38;9.52;;;6.35;;
36449;SDS011;22475;51.390;7.180;2023-05-10T10:27:15;6.72;;;5.32;;
36449;SDS011;22475;51.390;7.180;2023-05-10T10:29:51;8.32;;;5.22;;
36449;SDS011;22475;51.390;7.180;2023-05-10T10:32:27;8.57;;;6.25;;
36449;SDS011;22475;51.390;7.180;2023-05-10T10:35:05;5.75;;;4.93;;
36449;SDS011;22475;51.390;7.180;2023-05-10T10:40:23;6.95;;;5.03;;
36449;SDS011;22475;51.390;7.180;2023-05-10T10:42:51;5.90;;;5.30;;
36449;SDS011;22475;51.390;7.180;2023-05-10T10:45:19;6.03;;;5.13;;
36449;SDS011;22475;51.390;7.180;2023-05-10T10:47:47;6.10;;;4.90;;
36449;SDS011;22475;51.390;7.180;2023-05-10T10:50:16;7.50;;;6.18;;
36449;SDS011;22475;51.390;7.180;2023-05-10T10:52:43;10.20;;;6.63;;
36449;SDS011;22475;51.390;7.180;2023-05-10T10:55:10;9.68;;;5.60;;
36449;SDS011;22475;51.390;7.180;2023-05-10T10:57:44;8.85;;;6.07;;
36449;SDS011;22475;51.390;7.180;2023-05-10T11:00:23;12.68;;;6.90;;
36449;SDS011;22475;51.390;7.180;2023-05-10T11:02:52;5.53;;;5.03;;
36449;SDS011;22475;51.390;7.180;2023-05-10T11:05:32;8.93;;;5.63;;
36449;SDS011;22475;51.390;7.180;2023-05-10T11:08:09;6.75;;;5.07;;
36449;SDS011;22475;51.390;7.180;2023-05-10T11:10:48;11.52;;;6.88;;
36449;SDS011;22475;51.390;7.180;2023-05-10T11:13:29;6.18;;;5.15;;
36449;SDS011;22475;51.390;7.180;2023-05-10T11:15:57;7.22;;;5.50;;
36449;SDS011;22475;51.390;7.180;2023-05-10T11:18:25;7.43;;;5.93;;
36449;SDS011;22475;51.390;7.180;2023-05-10T11:20:56;9.85;;;5.68;;
36449;SDS011;22475;51.390;7.180;2023-05-10T11:23:29;6.05;;;4.82;;
36449;SDS011;22475;51.390;7.180;2023-05-10T11:25:57;7.57;;;4.82;;
36449;SDS011;22475;51.390;7.180;2023-05-10T11:28:25;8.80;;;5.60;;
36449;SDS011;22475;51.390;7.180;2023-05-10T11:30:53;10.63;;;5.18;;
36449;SDS011;22475;51.390;7.180;2023-05-10T11:33:21;6.35;;;4.65;;
36449;SDS011;22475;51.390;7.180;2023-05-10T11:35:47;10.43;;;5.20;;
36449;SDS011;22475;51.390;7.180;2023-05-10T11:38:15;8.15;;;5.65;;
36449;SDS011;22475;51.390;7.180;2023-05-10T11:40:42;7.90;;;5.60;;
36449;SDS011;22475;51.390;7.180;2023-05-10T11:43:09;7.20;;;5.53;;
36449;SDS011;22475;51.390;7.180;2023-05-10T11:45:37;7.93;;;5.50;;
36449;SDS011;22475;51.390;7.180;2023-05-10T11:48:05;5.97;;;5.22;;
36449;SDS011;22475;51.390;7.180;2023-05-10T11:50:32;6.47;;;4.18;;
36449;SDS011;22475;51.390;7.180;2023-05-10T11:52:59;8.40;;;4.80;;
36449;SDS011;22475;51.390;7.180;2023-05-10T11:55:27;6.55;;;5.32;;
36449;SDS011;22475;51.390;7.180;2023-05-10T11:57:55;6.18;;;4.70;;
36449;SDS011;22475;51.390;7.180;2023-05-10T12:00:27;4.53;;;4.13;;
36449;SDS011;22475;51.390;7.180;2023-05-10T12:02:54;5.05;;;4.28;;
36449;SDS011;22475;51.390;7.180;2023-05-10T12:05:20;5.30;;;4.45;;
36449;SDS011;22475;51.390;7.180;2023-05-10T12:07:48;6.50;;;4.97;;
36449;SDS011;22475;51.390;7.180;2023-05-10T12:10:14;11.90;;;4.93;;
36449;SDS011;22475;51.390;7.180;2023-05-10T12:12:44;4.93;;;4.43;;
36449;SDS011;22475;51.390;7.180;2023-05-10T12:15:12;7.83;;;4.47;;
36449;SDS011;22475;51.390;7.180;2023-05-10T12:17:44;7.28;;;4.93;;
36449;SDS011;22475;51.390;7.180;2023-05-10T12:20:15;5.85;;;3.80;;
36449;SDS011;22475;51.390;7.180;2023-05-10T12:22:46;4.50;;;4.07;;
36449;SDS011;22475;51.390;7.180;2023-05-10T12:25:15;6.05;;;3.55;;
36449;SDS011;22475;51.390;7.180;2023-05-10T12:27:48;5.63;;;3.97;;
36449;SDS011;22475;51.390;7.180;2023-05-10T12:30:20;4.15;;;3.85;;
36449;SDS011;22475;51.390;7.180;2023-05-10T12:32:47;4.68;;;3.58;;
36449;SDS011;22475;51.390;7.180;2023-05-10T12:35:14;6.57;;;4.07;;
36449;SDS011;22475;51.390;7.180;2023-05-10T12:37:42;4.72;;;3.80;;
36449;SDS011;22475;51.390;7.180;2023-05-10T12:40:09;4.68;;;3.80;;
36449;SDS011;22475;51.390;7.180;2023-05-10T12:42:37;5.88;;;3.97;;
36449;SDS011;22475;51.390;7.180;2023-05-10T12:45:07;4.40;;;3.72;;
36449;SDS011;22475;51.390;7.180;2023-05-10T12:47:34;4.13;;;3.72;;
36449;SDS011;22475;51.390;7.180;2023-05-10T12:50:01;4.40;;;4.00;;
36449;SDS011;22475;51.390;7.180;2023-05-10T12:52:29;4.95;;;3.78;;
36449;SDS011;22475;51.390;7.180;2023-05-10T12:54:57;5.20;;;4.70;;
36449;SDS011;22475;51.390;7.180;2023-05-10T12:57:23;12.90;;;5.13;;
36449;SDS011;22475;51.390;7.180;2023-05-10T12:59:50;8.85;;;4.63;;
36449;SDS011;22475;51.390;7.180;2023-05-10T13:02:18;5.82;;;5.00;;
36449;SDS011;22475;51.390;7.180;2023-05-10T13:04:46;5.47;;;4.30;;
36449;SDS011;22475;51.390;7.180;2023-05-10T13:07:13;8.77;;;4.88;;
36449;SDS011;22475;51.390;7.180;2023-05-10T13:09:39;4.25;;;3.63;;
36449;SDS011;22475;51.390;7.180;2023-05-10T13:12:06;5.70;;;4.38;;
36449;SDS011;22475;51.390;7.180;2023-05-10T13:14:33;9.00;;;3.42;;
36449;SDS011;22475;51.390;7.180;2023-05-10T13:17:00;4.70;;;4.30;;
36449;SDS011;22475;51.390;7.180;2023-05-10T13:19:28;4.82;;;4.30;;
36449;SDS011;22475;51.390;7.180;2023-05-10T13:21:54;3.95;;;3.63;;
36449;SDS011;22475;51.390;7.180;2023-05-10T13:24:21;4.80;;;4.30;;
36449;SDS011;22475;51.390;7.180;2023-05-10T13:26:48;5.85;;;3.80;;
36449;SDS011;22475;51.390;7.180;2023-05-10T13:29:15;4.35;;;3.78;;
36449;SDS011;22475;51.390;7.180;2023-05-10T13:31:43;5.93;;;4.45;;
36449;SDS011;22475;51.390;7.180;2023-05-10T13:34:10;4.38;;;3.60;;
36449;SDS011;22475;51.390;7.180;2023-05-10T13:36:38;3.97;;;3.67;;
36449;SDS011;22475;51.390;7.180;2023-05-10T13:39:04;4.18;;;3.78;;
36449;SDS011;22475;51.390;7.180;2023-05-10T13:41:31;7.32;;;3.88;;
36449;SDS011;22475;51.390;7.180;2023-05-10T13:43:59;4.28;;;3.88;;
36449;SDS011;22475;51.390;7.180;2023-05-10T13:46:25;5.50;;;3.42;;
36449;SDS011;22475;51.390;7.180;2023-05-10T13:48:52;3.53;;;3.28;;
36449;SDS011;22475;51.390;7.180;2023-05-10T13:51:19;5.68;;;3.55;;
36449;SDS011;22475;51.390;7.180;2023-05-10T13:53:47;4.95;;;3.85;;
36449;SDS011;22475;51.390;7.180;2023-05-10T13:56:14;3.72;;;3.30;;
36449;SDS011;22475;51.390;7.180;2023-05-10T13:58:41;4.53;;;3.55;;
36449;SDS011;22475;51.390;7.180;2023-05-10T14:01:07;6.05;;;3.35;;
36449;SDS011;22475;51.390;7.180;2023-05-10T14:03:34;4.57;;;3.72;;
36449;SDS011;22475;51.390;7.180;2023-05-10T14:06:01;4.60;;;4.13;;
36449;SDS011;22475;51.390;7.180;2023-05-10T14:08:28;3.70;;;3.13;;
36449;SDS011;22475;51.390;7.180;2023-05-10T14:10:56;3.60;;;3.33;;
36449;SDS011;22475;51.390;7.180;2023-05-10T14:13:23;6.78;;;3.17;;
36449;SDS011;22475;51.390;7.180;2023-05-10T14:15:50;4.00;;;3.42;;
36449;SDS011;22475;51.390;7.180;2023-05-10T14:18:18;3.67;;;3.33;;
36449;SDS011;22475;51.390;7.180;2023-05-10T14:20:45;4.35;;;3.95;;
36449;SDS011;22475;51.390;7.180;2023-05-10T14:23:12;3.42;;;3.13;;
36449;SDS011;22475;51.390;7.180;2023-05-10T14:25:39;3.08;;;2.83;;
36449;SDS011;22475;51.390;7.180;2023-05-10T14:28:07;3.38;;;3.17;;
36449;SDS011;22475;51.390;7.180;2023-05-10T14:30:34;3.25;;;3.03;;
36449;SDS011;22475;51.390;7.180;2023-05-10T14:33:01;3.67;;;3.30;;
36449;SDS011;22475;51.390;7.180;2023-05-10T14:35:29;3.25;;;3.05;;
36449;SDS011;22475;51.390;7.180;2023-05-10T14:37:56;3.35;;;3.15;;
36449;SDS011;22475;51.390;7.180;2023-05-10T14:40:23;4.78;;;3.42;;
36449;SDS011;22475;51.390;7.180;2023-05-10T14:42:51;4.55;;;2.88;;
36449;SDS011;22475;51.390;7.180;2023-05-10T14:45:20;3.72;;;2.92;;
36449;SDS011;22475;51.390;7.180;2023-05-10T14:47:47;3.55;;;3.25;;
36449;SDS011;22475;51.390;7.180;2023-05-10T14:50:14;2.75;;;2.55;;
36449;SDS011;22475;51.390;7.180;2023-05-10T14:52:41;3.30;;;3.10;;
36449;SDS011;22475;51.390;7.180;2023-05-10T14:55:09;3.58;;;3.28;;